Time;durP1;ratioP1;P1;durP2;ratioP2;P2;SDS_P1;SDS_P2;PMS_P1;PMS_P2;Temp;Humidity;BMP_temperature;BMP_pressure;BME280_temperature;BME280_humidity;BME280_pressure;Samples;Min_cycle;Max_cycle;Signal;HPM_P1;HPM_P2
2022/09/04 00:02:33;;;;;;;5.88;1.80;;;16.30;97.40;;;;;;7398866;19;20018;-77
2022/09/04 00:05:13;;;;;;;3.80;1.98;;;16.30;97.40;;;;;;7398690;19;20350;-77
2022/09/04 00:08:06;;;;;;;6.22;1.77;;;16.20;97.50;;;;;;7397756;19;20018;-76
2022/09/04 00:10:46;;;;;;;4.88;2.13;;;16.20;97.40;;;;;;7397647;19;20010;-77
2022/09/04 00:13:42;;;;;;;4.45;1.90;;;16.20;97.50;;;;;;7397649;19;20010;-77
2022/09/04 00:16:23;;;;;;;7.63;1.73;;;16.20;97.80;;;;;;7394161;19;20014;-76
2022/09/04 00:18:55;;;;;;;3.80;1.65;;;16.10;97.50;;;;;;7395836;19;20018;-77
2022/09/04 00:21:43;;;;;;;2.92;1.80;;;16.10;97.60;;;;;;7397225;19;20494;-77
2022/09/04 00:24:23;;;;;;;2.90;1.25;;;16.00;98.00;;;;;;7397121;19;20035;-77
2022/09/04 00:27:01;;;;;;;2.42;1.70;;;16.00;97.80;;;;;;7397638;19;20011;-77
2022/09/04 00:30:01;;;;;;;5.68;2.00;;;15.90;97.90;;;;;;7397462;19;20051;-76
2022/09/04 00:32:38;;;;;;;2.83;1.90;;;15.90;98.10;;;;;;7394726;19;20031;-77
2022/09/04 00:35:04;;;;;;;7.93;1.83;;;15.90;98.20;;;;;;7396000;19;20070;-77
2022/09/04 00:37:55;;;;;;;2.92;1.80;;;15.80;98.30;;;;;;7395767;19;20010;-77
2022/09/04 00:40:29;;;;;;;2.17;1.75;;;15.80;98.40;;;;;;7397143;19;20015;-77
2022/09/04 00:43:10;;;;;;;3.42;1.60;;;15.80;98.60;;;;;;7396862;19;20006;-77
2022/09/04 00:45:40;;;;;;;5.97;2.08;;;15.70;98.90;;;;;;7396700;19;20479;-77
2022/09/04 00:48:14;;;;;;;4.90;1.70;;;15.60;99.00;;;;;;7396013;19;20039;-77
2022/09/04 00:51:15;;;;;;;5.65;1.92;;;15.50;99.00;;;;;;7395003;19;20108;-77
2022/09/04 00:53:47;;;;;;;3.85;1.80;;;15.50;99.20;;;;;;7396220;19;20348;-77
2022/09/04 00:56:53;;;;;;;8.27;1.70;;;15.50;99.30;;;;;;7394193;19;20483;-77
2022/09/04 00:59:46;;;;;;;3.45;1.70;;;15.50;99.40;;;;;;7396788;19;20093;-77
2022/09/04 01:02:30;;;;;;;2.70;1.92;;;15.40;99.60;;;;;;7395941;19;20081;-77
2022/09/04 01:05:08;;;;;;;5.82;1.67;;;15.30;99.60;;;;;;7396437;19;20428;-77
2022/09/04 01:07:43;;;;;;;3.47;1.92;;;15.20;99.60;;;;;;7395548;19;20031;-77
2022/09/04 01:10:30;;;;;;;4.45;1.70;;;15.20;99.80;;;;;;7395756;19;20483;-77
2022/09/04 01:13:11;;;;;;;3.33;1.65;;;15.20;99.90;;;;;;7394280;19;20018;-76
2022/09/04 01:16:13;;;;;;;3.28;1.60;;;15.20;99.90;;;;;;7392430;19;20408;-77
2022/09/04 01:18:49;;;;;;;3.05;2.15;;;15.20;99.90;;;;;;7394710;19;20017;-77
2022/09/04 01:21:23;;;;;;;3.53;2.00;;;15.20;99.90;;;;;;7395184;19;20011;-77
2022/09/04 01:24:16;;;;;;;4.95;1.88;;;15.10;99.90;;;;;;7393840;19;20021;-77
2022/09/04 01:26:57;;;;;;;6.20;2.03;;;15.10;99.90;;;;;;7393802;19;20010;-77
2022/09/04 01:29:27;;;;;;;5.45;1.90;;;15.00;99.90;;;;;;7395155;19;20017;-77
2022/09/04 01:32:24;;;;;;;3.25;1.70;;;14.90;99.90;;;;;;7394854;19;20010;-76
2022/09/04 01:35:07;;;;;;;3.00;1.65;;;14.90;99.90;;;;;;7393816;19;20045;-77
2022/09/04 01:37:47;;;;;;;4.28;1.77;;;14.90;99.90;;;;;;7392888;19;20014;-77
2022/09/04 01:40:28;;;;;;;2.40;1.63;;;14.90;99.90;;;;;;7394672;19;20010;-77
2022/09/04 01:43:21;;;;;;;3.90;1.70;;;14.90;99.90;;;;;;7394586;19;20014;-77
2022/09/04 01:46:20;;;;;;;3.67;1.90;;;14.90;99.90;;;;;;7395040;19;20094;-76
2022/09/04 01:49:08;;;;;;;3.60;1.88;;;14.80;99.90;;;;;;7395745;19;20440;-77
2022/09/04 01:52:04;;;;;;;3.55;1.60;;;14.70;99.90;;;;;;7394327;19;20007;-77
2022/09/04 01:54:46;;;;;;;5.45;2.17;;;14.60;99.90;;;;;;7393843;19;20035;-77
2022/09/04 01:57:29;;;;;;;4.85;2.00;;;14.60;99.90;;;;;;7394358;19;20487;-77
2022/09/04 02:00:11;;;;;;;3.35;1.63;;;14.50;99.90;;;;;;7392291;19;20021;-77
2022/09/04 02:02:59;;;;;;;5.65;1.95;;;14.50;99.90;;;;;;7394455;19;20017;-77
2022/09/04 02:06:08;;;;;;;3.20;1.88;;;14.50;99.90;;;;;;7394158;19;20010;-77
2022/09/04 02:08:51;;;;;;;4.63;2.10;;;14.50;99.90;;;;;;7392325;19;20104;-77
2022/09/04 02:11:27;;;;;;;4.95;1.88;;;14.50;99.90;;;;;;7394046;19;20011;-77
2022/09/04 02:14:25;;;;;;;4.10;1.80;;;14.50;99.90;;;;;;7392175;19;20482;-77
2022/09/04 02:17:09;;;;;;;2.15;1.70;;;14.40;99.90;;;;;;7391903;19;20479;-77
2022/09/04 02:19:45;;;;;;;3.35;1.70;;;14.40;99.90;;;;;;7393508;19;20039;-77
2022/09/04 02:22:33;;;;;;;5.72;1.92;;;14.40;99.90;;;;;;7393332;19;20026;-76
2022/09/04 02:25:10;;;;;;;3.75;1.83;;;14.30;99.90;;;;;;7393248;19;20014;-76
2022/09/04 02:27:46;;;;;;;2.95;1.73;;;14.20;99.90;;;;;;7393299;19;20422;-77
2022/09/04 02:30:16;;;;;;;3.42;1.80;;;14.20;99.90;;;;;;7393707;19;20387;-77
2022/09/04 02:33:03;;;;;;;3.63;1.95;;;14.20;99.90;;;;;;7393029;19;20010;-77
2022/09/04 02:35:28;;;;;;;3.38;1.88;;;14.20;99.90;;;;;;7391930;19;20014;-77
2022/09/04 02:38:26;;;;;;;4.78;1.92;;;14.10;99.90;;;;;;7392528;19;20032;-77
2022/09/04 02:41:01;;;;;;;3.58;2.08;;;14.10;99.90;;;;;;7392079;19;20014;-76
2022/09/04 02:43:47;;;;;;;2.35;2.00;;;14.10;99.90;;;;;;7391211;19;20085;-76
2022/09/04 02:46:48;;;;;;;4.00;1.60;;;14.10;99.90;;;;;;7392535;19;20010;-76
2022/09/04 02:49:35;;;;;;;4.55;1.80;;;14.00;99.90;;;;;;7393046;19;20031;-76
2022/09/04 02:52:22;;;;;;;3.50;1.88;;;14.00;99.90;;;;;;7392334;19;20011;-76
2022/09/04 02:55:16;;;;;;;4.07;1.98;;;14.00;99.90;;;;;;7391775;19;20741;-77
2022/09/04 02:58:13;;;;;;;2.78;2.00;;;14.00;99.90;;;;;;7392616;19;20476;-77
2022/09/04 03:00:53;;;;;;;5.13;2.03;;;14.00;99.90;;;;;;7392716;19;20011;-76
2022/09/04 03:03:47;;;;;;;4.47;2.05;;;13.90;99.90;;;;;;7394781;19;20100;-76
2022/09/04 03:06:24;;;;;;;5.68;2.00;;;13.90;99.90;;;;;;7390433;19;20010;-77
2022/09/04 03:09:00;;;;;;;5.32;2.08;;;13.90;99.90;;;;;;7392509;19;20018;-77
2022/09/04 03:11:39;;;;;;;3.20;1.92;;;13.80;99.90;;;;;;7391804;19;20475;-76
2022/09/04 03:14:14;;;;;;;4.20;1.70;;;13.80;99.90;;;;;;7390624;19;20015;-76
2022/09/04 03:16:50;;;;;;;4.70;2.00;;;13.70;99.90;;;;;;7392176;19;20011;-76
2022/09/04 03:19:37;;;;;;;4.10;2.10;;;13.70;99.90;;;;;;7391845;19;20485;-77
2022/09/04 03:22:22;;;;;;;3.53;2.10;;;13.70;99.90;;;;;;7391983;19;20022;-76
2022/09/04 03:25:22;;;;;;;2.78;1.90;;;13.70;99.90;;;;;;7390291;19;20694;-76
2022/09/04 03:27:48;;;;;;;5.38;2.00;;;13.70;99.90;;;;;;7390311;19;20333;-77
2022/09/04 03:30:15;;;;;;;4.53;2.17;;;13.60;99.90;;;;;;7396138;19;20509;-76
2022/09/04 03:32:50;;;;;;;7.28;2.30;;;13.60;99.90;;;;;;7397415;19;20483;-76
2022/09/04 03:35:19;;;;;;;3.65;2.10;;;13.60;99.90;;;;;;7397749;19;20014;-76
2022/09/04 03:37:59;;;;;;;3.95;2.17;;;13.60;99.90;;;;;;7398657;19;20018;-76
2022/09/04 03:40:41;;;;;;;2.42;2.03;;;13.50;99.90;;;;;;7397258;19;20491;-76
2022/09/04 03:43:16;;;;;;;3.70;1.90;;;13.50;99.90;;;;;;7399362;19;20364;-76
2022/09/04 03:45:57;;;;;;;4.20;2.10;;;13.50;99.90;;;;;;7399761;19;20511;-76
2022/09/04 03:48:29;;;;;;;4.63;2.03;;;13.50;99.90;;;;;;7398808;19;20550;-76
2022/09/04 03:50:56;;;;;;;4.30;1.90;;;13.40;99.90;;;;;;7398297;19;20405;-77
2022/09/04 03:53:29;;;;;;;2.53;2.10;;;13.40;99.90;;;;;;7398113;19;20018;-76
2022/09/04 03:56:01;;;;;;;3.63;2.17;;;13.40;99.90;;;;;;7396119;19;20044;-77
2022/09/04 03:58:35;;;;;;;4.63;2.30;;;13.40;99.90;;;;;;7396486;19;20010;-77
2022/09/04 04:01:12;;;;;;;3.80;2.20;;;13.40;99.90;;;;;;7398280;19;20010;-77
2022/09/04 04:04:09;;;;;;;4.43;2.08;;;13.40;99.90;;;;;;7398236;19;20014;-77
2022/09/04 04:06:39;;;;;;;4.10;2.10;;;13.40;99.90;;;;;;7397989;19;20076;-77
2022/09/04 04:09:17;;;;;;;3.55;2.03;;;13.40;99.90;;;;;;7396485;19;20541;-76
2022/09/04 04:12:11;;;;;;;4.43;2.13;;;13.40;99.90;;;;;;7395900;19;20357;-76
2022/09/04 04:14:40;;;;;;;4.68;2.30;;;13.30;99.90;;;;;;7396736;19;20018;-77
2022/09/04 04:17:44;;;;;;;4.40;2.15;;;13.30;99.90;;;;;;7396880;19;20081;-76
2022/09/04 04:20:37;;;;;;;4.90;2.13;;;13.30;99.90;;;;;;7394036;19;20026;-77
2022/09/04 04:23:35;;;;;;;3.58;2.30;;;13.30;99.90;;;;;;7395877;19;20025;-76
2022/09/04 04:26:06;;;;;;;3.42;2.20;;;13.20;99.90;;;;;;7397113;19;20404;-77
2022/09/04 04:29:09;;;;;;;3.25;2.20;;;13.30;99.90;;;;;;7397217;19;20013;-77
2022/09/04 04:32:10;;;;;;;4.40;2.20;;;13.20;99.90;;;;;;7397368;19;20035;-77
2022/09/04 04:34:57;;;;;;;4.13;2.40;;;13.20;99.90;;;;;;7396317;19;20503;-76
2022/09/04 04:37:34;;;;;;;3.00;2.00;;;13.20;99.90;;;;;;7396453;19;20157;-76
2022/09/04 04:40:33;;;;;;;3.25;2.17;;;13.20;99.90;;;;;;7396171;19;20052;-76
2022/09/04 04:43:23;;;;;;;4.78;2.28;;;13.20;99.90;;;;;;7395095;19;20010;-76
2022/09/04 04:45:54;;;;;;;4.10;1.88;;;13.20;99.90;;;;;;7396497;19;20074;-77
2022/09/04 04:48:39;;;;;;;3.70;2.13;;;13.10;99.90;;;;;;7394907;19;20047;-76
2022/09/04 04:51:46;;;;;;;5.50;2.40;;;13.10;99.90;;;;;;7396578;19;20014;-76
2022/09/04 04:54:31;;;;;;;3.72;2.47;;;13.10;99.90;;;;;;7392348;19;20021;-77
2022/09/04 04:57:19;;;;;;;5.95;2.60;;;13.10;99.90;;;;;;7392499;19;20038;-76
2022/09/04 05:00:20;;;;;;;3.67;2.35;;;13.10;99.90;;;;;;7395866;19;20006;-76
2022/09/04 05:03:04;;;;;;;5.72;2.15;;;13.10;99.90;;;;;;7394801;19;20009;-76
2022/09/04 05:05:40;;;;;;;4.03;2.30;;;13.10;99.90;;;;;;7395603;19;20365;-77
2022/09/04 05:08:28;;;;;;;3.53;2.00;;;13.10;99.90;;;;;;7395975;19;20535;-76
2022/09/04 05:11:20;;;;;;;3.85;2.47;;;13.20;99.90;;;;;;7394133;19;20007;-77
2022/09/04 05:14:04;;;;;;;5.20;2.40;;;13.20;99.90;;;;;;7395818;19;20070;-76
2022/09/04 05:16:56;;;;;;;4.88;2.20;;;13.30;99.90;;;;;;7395259;19;20003;-76
2022/09/04 05:19:46;;;;;;;2.92;2.20;;;13.30;99.90;;;;;;7395699;19;20154;-76
2022/09/04 05:22:18;;;;;;;4.75;2.42;;;13.30;99.90;;;;;;7395463;19;20125;-77
2022/09/04 05:24:54;;;;;;;2.88;2.08;;;13.40;99.90;;;;;;7395230;19;20043;-77
2022/09/04 05:27:22;;;;;;;6.05;2.30;;;13.40;99.90;;;;;;7394903;19;20557;-77
2022/09/04 05:30:07;;;;;;;5.45;2.33;;;13.50;99.90;;;;;;7395005;19;20018;-77
2022/09/04 05:33:01;;;;;;;7.20;2.55;;;13.60;99.90;;;;;;7394648;19;20018;-77
2022/09/04 05:35:55;;;;;;;3.10;2.33;;;13.60;99.90;;;;;;7392095;19;20014;-76
2022/09/04 05:38:34;;;;;;;;;;;13.60;99.90;;;;;;7394528;19;20070;-76
2022/09/04 05:41:18;;;;;;;5.85;2.35;;;13.60;99.90;;;;;;7395831;19;20414;-77
2022/09/04 05:44:01;;;;;;;5.38;2.60;;;13.60;99.90;;;;;;7394691;19;20034;-77
2022/09/04 05:46:57;;;;;;;5.13;2.55;;;13.60;99.90;;;;;;7394127;19;20010;-77
2022/09/04 05:50:01;;;;;;;4.95;2.50;;;13.60;99.90;;;;;;7394378;19;20023;-77
2022/09/04 05:52:29;;;;;;;;;;;13.70;99.90;;;;;;7391129;19;20021;-76
2022/09/04 05:55:30;;;;;;;5.13;2.38;;;13.70;99.90;;;;;;7393422;19;20339;-77
2022/09/04 05:58:16;;;;;;;3.63;2.40;;;13.70;99.90;;;;;;7393742;19;20423;-76
2022/09/04 06:01:08;;;;;;;5.10;2.30;;;13.70;99.90;;;;;;7396657;19;20014;-77
2022/09/04 06:04:07;;;;;;;5.10;2.53;;;13.80;99.90;;;;;;7391955;19;20015;-77
2022/09/04 06:07:02;;;;;;;6.95;2.50;;;13.80;99.90;;;;;;7393844;19;20002;-76
2022/09/04 06:09:31;;;;;;;3.75;2.15;;;13.90;99.90;;;;;;7393828;19;20108;-77
2022/09/04 06:12:15;;;;;;;3.70;2.22;;;14.00;99.90;;;;;;7393776;19;20015;-77
2022/09/04 06:15:12;;;;;;;4.03;2.42;;;14.00;99.90;;;;;;7393191;19;20078;-77
2022/09/04 06:18:05;;;;;;;4.10;2.72;;;14.00;99.90;;;;;;7393069;19;20490;-78
2022/09/04 06:20:51;;;;;;;5.22;2.67;;;14.10;99.90;;;;;;7392361;19;20475;-77
2022/09/04 06:23:35;;;;;;;3.53;2.28;;;14.20;99.90;;;;;;7391766;19;20014;-77
2022/09/04 06:26:05;;;;;;;5.80;2.60;;;14.20;99.90;;;;;;7393630;19;20521;-77
2022/09/04 06:29:06;;;;;;;6.82;2.33;;;14.30;99.90;;;;;;7393132;19;20006;-77
2022/09/04 06:31:34;;;;;;;4.47;2.80;;;14.40;99.90;;;;;;7391633;19;20011;-77
2022/09/04 06:34:15;;;;;;;5.82;2.30;;;14.50;99.90;;;;;;7393154;19;20026;-77
2022/09/04 06:37:11;;;;;;;6.65;2.65;;;14.60;99.90;;;;;;7393100;19;20086;-77
2022/09/04 06:39:54;;;;;;;5.88;2.47;;;14.70;99.90;;;;;;7389963;19;20126;-78
2022/09/04 06:42:49;;;;;;;5.82;2.47;;;14.80;99.90;;;;;;7391458;19;20371;-77
2022/09/04 06:45:42;;;;;;;5.40;2.70;;;14.90;99.90;;;;;;7392734;19;20022;-77
2022/09/04 06:48:37;;;;;;;4.63;2.45;;;15.00;99.90;;;;;;7392633;19;20475;-77
2022/09/04 06:51:32;;;;;;;4.88;2.42;;;15.10;99.90;;;;;;7390897;19;20018;-77
2022/09/04 06:54:35;;;;;;;4.50;2.40;;;15.30;99.90;;;;;;7388858;19;20040;-77
2022/09/04 06:57:30;;;;;;;4.37;2.50;;;15.30;99.90;;;;;;7392598;19;20425;-77
2022/09/04 07:00:09;;;;;;;6.32;2.75;;;15.30;99.90;;;;;;7393679;19;20279;-77
2022/09/04 07:02:54;;;;;;;4.35;2.90;;;15.40;99.90;;;;;;7390751;19;20581;-77
2022/09/04 07:05:57;;;;;;;4.75;2.72;;;15.60;99.90;;;;;;7398290;19;20078;-77
2022/09/04 07:09:02;;;;;;;5.65;2.92;;;16.40;99.90;;;;;;7398176;19;20036;-76
2022/09/04 07:11:43;;;;;;;4.53;2.60;;;17.50;99.90;;;;;;7398148;19;20018;-77
2022/09/04 07:14:37;;;;;;;4.15;2.67;;;17.80;99.90;;;;;;7398522;19;20039;-77
2022/09/04 07:17:28;;;;;;;4.25;2.90;;;17.40;99.90;;;;;;7397655;19;20011;-77
2022/09/04 07:20:06;;;;;;;4.72;2.70;;;17.40;99.90;;;;;;7399425;19;20020;-77
2022/09/04 07:22:47;;;;;;;4.82;3.10;;;17.60;99.90;;;;;;7399439;19;20101;-77
2022/09/04 07:25:31;;;;;;;4.85;2.65;;;18.10;99.90;;;;;;7399245;19;20358;-78
2022/09/04 07:28:42;;;;;;;5.75;2.90;;;18.90;99.90;;;;;;7397720;19;20010;-77
2022/09/04 07:31:16;;;;;;;5.35;2.78;;;20.30;99.60;;;;;;7398980;19;20018;-77
2022/09/04 07:34:09;;;;;;;5.07;2.95;;;21.40;98.50;;;;;;7399169;19;20018;-77
2022/09/04 07:36:56;;;;;;;5.57;2.85;;;21.80;96.70;;;;;;7399256;19;20070;-77
2022/09/04 07:40:03;;;;;;;3.90;2.30;;;22.30;96.90;;;;;;7395193;19;20017;-77
2022/09/04 07:42:38;;;;;;;4.85;2.60;;;22.30;96.30;;;;;;7397318;19;20082;-76
2022/09/04 07:45:21;;;;;;;4.43;2.45;;;22.30;96.00;;;;;;7397219;19;20007;-77
2022/09/04 07:48:01;;;;;;;5.33;2.63;;;22.40;96.10;;;;;;7398169;19;20014;-77
2022/09/04 07:50:56;;;;;;;4.28;2.70;;;22.50;95.50;;;;;;7399091;19;20014;-76
2022/09/04 07:53:41;;;;;;;4.15;2.60;;;23.00;95.00;;;;;;7395770;19;20014;-77
2022/09/04 07:56:24;;;;;;;3.22;2.60;;;22.60;95.10;;;;;;7396509;19;20078;-76
2022/09/04 07:59:20;;;;;;;6.15;2.92;;;22.90;95.20;;;;;;7401206;19;20022;-77
2022/09/04 08:02:04;;;;;;;4.45;3.13;;;23.00;94.40;;;;;;7398556;19;20014;-77
2022/09/04 08:04:42;;;;;;;7.00;2.83;;;23.20;95.40;;;;;;7397916;19;20021;-77
2022/09/04 08:07:47;;;;;;;5.32;2.63;;;23.20;95.00;;;;;;7398308;19;20733;-77
2022/09/04 08:10:19;;;;;;;4.20;2.90;;;23.30;95.10;;;;;;7396359;19;20505;-77
2022/09/04 08:12:55;;;;;;;4.65;2.42;;;23.40;94.60;;;;;;7397808;19;20026;-77
2022/09/04 08:15:42;;;;;;;4.10;2.50;;;23.10;94.60;;;;;;7394489;19;20552;-77
2022/09/04 08:18:08;;;;;;;4.18;2.58;;;22.90;94.90;;;;;;7397078;19;20381;-77
2022/09/04 08:20:38;;;;;;;4.78;2.40;;;22.00;95.20;;;;;;7397445;19;20034;-77
2022/09/04 08:23:49;;;;;;;4.70;2.40;;;21.40;95.90;;;;;;7397426;19;20011;-76
2022/09/04 08:26:21;;;;;;;4.20;2.60;;;20.80;96.10;;;;;;7397355;19;20356;-77
2022/09/04 08:29:13;;;;;;;6.65;2.53;;;20.70;97.40;;;;;;7395962;19;20007;-76
2022/09/04 08:32:07;;;;;;;6.65;2.70;;;20.60;97.00;;;;;;7397498;19;20057;-77
2022/09/04 08:34:47;;;;;;;4.63;2.55;;;20.70;97.80;;;;;;7395086;19;20015;-77
2022/09/04 08:37:36;;;;;;;3.97;2.20;;;20.60;97.50;;;;;;7396919;19;20020;-78
2022/09/04 08:40:10;;;;;;;5.38;2.40;;;20.70;97.20;;;;;;7396776;19;20018;-76
2022/09/04 08:42:50;;;;;;;6.72;2.42;;;20.80;97.30;;;;;;7396739;19;20006;-77
2022/09/04 08:46:10;;;;;;;5.03;2.50;;;20.80;96.60;;;;;;7397264;19;20003;-76
2022/09/04 08:48:40;;;;;;;3.72;2.60;;;20.80;97.00;;;;;;7392950;19;20006;-77
2022/09/04 08:51:14;;;;;;;4.97;2.60;;;20.90;96.70;;;;;;7396467;19;20014;-77
2022/09/04 08:53:51;;;;;;;5.47;2.20;;;20.90;96.40;;;;;;7396601;19;20086;-77
2022/09/04 08:56:24;;;;;;;3.13;2.33;;;21.10;97.50;;;;;;7392798;19;20073;-77
2022/09/04 08:59:11;;;;;;;5.25;2.50;;;21.30;97.30;;;;;;7396420;19;20014;-78
2022/09/04 09:02:10;;;;;;;3.17;2.10;;;21.40;96.80;;;;;;7396308;19;20018;-77
2022/09/04 09:05:13;;;;;;;4.18;2.53;;;21.50;96.50;;;;;;7394340;19;20010;-77
2022/09/04 09:07:47;;;;;;;4.28;2.20;;;21.60;97.00;;;;;;7396049;19;20014;-77
2022/09/04 09:10:31;;;;;;;3.00;1.95;;;21.70;96.80;;;;;;7395926;19;20334;-76
2022/09/04 09:13:34;;;;;;;6.50;2.50;;;21.90;96.40;;;;;;7395769;19;20010;-77
2022/09/04 09:16:12;;;;;;;5.05;2.53;;;22.10;96.50;;;;;;7394087;19;20011;-78
2022/09/04 09:19:19;;;;;;;5.10;2.42;;;22.20;96.30;;;;;;7395922;19;20038;-77
2022/09/04 09:22:11;;;;;;;3.50;2.03;;;22.30;95.70;;;;;;7391586;19;20007;-76
2022/09/04 09:25:20;;;;;;;4.15;2.22;;;22.40;95.90;;;;;;7392724;19;20018;-77
2022/09/04 09:28:07;;;;;;;3.35;2.38;;;22.40;96.00;;;;;;7395288;19;20078;-77
2022/09/04 09:30:52;;;;;;;4.10;2.35;;;22.50;95.80;;;;;;7396007;19;20015;-76
2022/09/04 09:33:33;;;;;;;5.38;2.33;;;22.50;96.10;;;;;;7393827;19;20368;-76
2022/09/04 09:36:08;;;;;;;3.53;2.05;;;22.60;95.40;;;;;;7392336;19;20014;-78
2022/09/04 09:38:58;;;;;;;3.67;2.35;;;22.70;96.00;;;;;;7393970;19;20019;-77
2022/09/04 09:41:45;;;;;;;5.18;2.38;;;22.90;95.90;;;;;;7393134;19;20678;-76
2022/09/04 09:44:39;;;;;;;5.03;2.53;;;23.00;95.40;;;;;;7395166;19;20035;-77
2022/09/04 09:47:35;;;;;;;8.00;2.50;;;23.10;95.90;;;;;;7394161;19;20468;-77
2022/09/04 09:50:01;;;;;;;4.63;2.10;;;23.20;95.50;;;;;;7393082;19;20011;-76
2022/09/04 09:52:36;;;;;;;5.65;2.33;;;23.30;95.50;;;;;;7393120;19;20014;-76
2022/09/04 09:55:36;;;;;;;4.28;2.20;;;23.30;95.60;;;;;;7392789;19;20404;-76
2022/09/04 09:58:39;;;;;;;4.05;2.22;;;23.40;94.80;;;;;;7394603;19;20031;-77
2022/09/04 10:01:18;;;;;;;7.30;2.47;;;23.30;94.60;;;;;;7393981;19;20006;-76
2022/09/04 10:04:17;;;;;;;3.15;2.28;;;23.40;94.90;;;;;;7392696;19;20019;-76
2022/09/04 10:06:46;;;;;;;3.65;2.38;;;23.50;94.60;;;;;;7391309;19;20014;-77
2022/09/04 10:09:39;;;;;;;4.38;2.00;;;23.60;94.70;;;;;;7394377;19;20016;-77
2022/09/04 10:12:27;;;;;;;7.35;2.35;;;23.70;94.10;;;;;;7393984;19;20041;-77
2022/09/04 10:14:59;;;;;;;5.25;1.95;;;23.70;94.40;;;;;;7393371;19;20111;-77
2022/09/04 10:17:43;;;;;;;3.42;1.98;;;23.70;93.70;;;;;;7391724;19;20015;-77
2022/09/04 10:20:45;;;;;;;3.70;2.38;;;23.70;94.30;;;;;;7393628;19;20018;-77
2022/09/04 10:23:10;;;;;;;3.30;2.17;;;23.80;94.40;;;;;;7394449;19;20014;-77
2022/09/04 10:26:01;;;;;;;4.15;2.25;;;23.80;94.30;;;;;;7394066;19;20010;-77
2022/09/04 10:29:04;;;;;;;2.15;1.95;;;24.00;94.20;;;;;;7392786;19;20087;-77
2022/09/04 10:32:30;;;;;;;6.05;2.00;;;24.10;94.00;;;;;;7391836;19;20023;-77
2022/09/04 10:35:02;;;;;;;4.22;2.08;;;24.10;94.10;;;;;;7389005;19;20040;-76
2022/09/04 10:37:39;;;;;;;4.05;1.67;;;24.20;93.80;;;;;;7390515;19;20082;-77
2022/09/04 10:40:35;;;;;;;4.00;1.83;;;24.20;93.70;;;;;;7405690;19;20018;-77
2022/09/04 10:43:22;;;;;;;4.80;1.92;;;24.40;93.90;;;;;;7407581;19;20017;-77
2022/09/04 10:46:07;;;;;;;2.80;1.75;;;24.40;93.70;;;;;;7405970;19;20014;-76
2022/09/04 10:48:48;;;;;;;3.92;1.90;;;24.40;93.50;;;;;;7407238;19;20018;-77
2022/09/04 10:51:26;;;;;;;4.85;2.00;;;24.60;93.50;;;;;;7407109;19;20006;-77
2022/09/04 10:54:13;;;;;;;5.20;2.10;;;24.70;93.60;;;;;;7406764;19;20010;-77
2022/09/04 10:56:57;;;;;;;3.78;2.00;;;24.80;93.40;;;;;;7409518;19;20082;-77
2022/09/04 10:59:57;;;;;;;2.80;1.80;;;25.00;93.00;;;;;;7405030;19;20201;-77
2022/09/04 11:02:32;;;;;;;4.88;2.03;;;25.00;93.40;;;;;;7405025;19;20024;-77
2022/09/04 11:05:16;;;;;;;3.75;1.92;;;25.00;92.50;;;;;;7406548;19;20113;-77
2022/09/04 11:07:55;;;;;;;2.90;1.65;;;24.80;92.60;;;;;;7403310;19;20341;-77
2022/09/04 11:10:50;;;;;;;6.88;2.03;;;24.70;92.60;;;;;;7404642;19;20352;-77
2022/09/04 11:13:35;;;;;;;3.00;1.70;;;24.70;92.30;;;;;;7404662;19;20014;-76
2022/09/04 11:16:13;;;;;;;3.17;2.13;;;24.60;92.90;;;;;;7403263;19;20011;-77
2022/09/04 11:19:09;;;;;;;3.78;1.80;;;24.70;92.30;;;;;;7406400;19;20014;-77
2022/09/04 11:21:37;;;;;;;5.82;2.10;;;24.80;92.60;;;;;;7406582;19;20038;-76
2022/09/04 11:24:25;;;;;;;3.67;1.80;;;24.80;92.90;;;;;;7406123;19;20018;-77
2022/09/04 11:27:19;;;;;;;4.10;2.00;;;24.90;92.60;;;;;;7404678;19;20490;-77
2022/09/04 11:30:12;;;;;;;4.25;2.00;;;24.90;92.00;;;;;;7406587;19;20022;-77
2022/09/04 11:33:05;;;;;;;3.95;1.77;;;25.00;92.50;;;;;;7403742;19;20357;-77
2022/09/04 11:35:49;;;;;;;5.65;1.58;;;25.00;92.50;;;;;;7404946;19;20371;-77
2022/09/04 11:38:19;;;;;;;4.13;2.05;;;25.10;92.30;;;;;;7406261;19;20014;-76
2022/09/04 11:41:23;;;;;;;3.70;2.00;;;25.00;92.20;;;;;;7405790;19;20488;-77
2022/09/04 11:43:57;;;;;;;2.45;1.85;;;24.90;91.80;;;;;;7404329;19;20097;-77
2022/09/04 11:47:11;;;;;;;2.72;1.90;;;25.00;92.80;;;;;;7403686;19;20011;-77
2022/09/04 11:49:42;;;;;;;4.70;2.15;;;25.20;92.40;;;;;;7399346;19;20018;-77
2022/09/04 11:52:14;;;;;;;4.78;2.00;;;25.30;92.50;;;;;;7398096;19;20003;-77
2022/09/04 11:54:59;;;;;;;4.85;2.13;;;25.50;92.00;;;;;;7400524;19;20074;-77
2022/09/04 11:58:22;;;;;;;3.80;1.70;;;25.60;91.80;;;;;;7396758;19;20388;-77
2022/09/04 12:01:09;;;;;;;3.92;1.80;;;25.60;91.50;;;;;;7394203;19;20015;-77
2022/09/04 12:03:40;;;;;;;2.90;1.70;;;25.60;91.60;;;;;;7394348;19;20044;-77
2022/09/04 12:06:34;;;;;;;2.92;2.00;;;25.70;91.50;;;;;;7396763;19;20017;-77
2022/09/04 12:09:15;;;;;;;6.25;1.98;;;25.90;92.10;;;;;;7397812;19;20013;-77
2022/09/04 12:12:02;;;;;;;3.42;1.80;;;26.00;91.50;;;;;;7396360;19;20497;-77
2022/09/04 12:14:43;;;;;;;3.10;1.83;;;26.00;90.90;;;;;;7397767;19;20025;-78
2022/09/04 12:17:14;;;;;;;3.53;1.73;;;25.90;91.30;;;;;;7395434;19;20018;-77
2022/09/04 12:19:57;;;;;;;2.22;1.70;;;26.00;91.40;;;;;;7398029;19;20049;-77
2022/09/04 12:22:54;;;;;;;3.70;1.92;;;25.90;91.10;;;;;;7395717;19;20475;-77
2022/09/04 12:25:48;;;;;;;4.80;2.20;;;25.90;90.70;;;;;;7395825;19;20019;-77
2022/09/04 12:28:51;;;;;;;4.50;1.95;;;26.00;91.30;;;;;;7397490;19;20015;-77
2022/09/04 12:32:02;;;;;;;4.63;1.58;;;26.20;91.10;;;;;;7395479;19;20007;-77
2022/09/04 12:34:47;;;;;;;6.95;2.20;;;26.30;91.10;;;;;;7396848;19;20021;-77
2022/09/04 12:37:42;;;;;;;7.05;1.90;;;26.30;91.30;;;;;;7396802;19;20379;-77
2022/09/04 12:40:43;;;;;;;6.40;1.80;;;26.30;91.20;;;;;;7396902;19;20368;-77
2022/09/04 12:43:32;;;;;;;4.72;2.00;;;26.50;91.50;;;;;;7396817;19;20010;-77
2022/09/04 12:46:34;;;;;;;6.15;1.77;;;26.60;90.40;;;;;;7396739;19;20094;-77
2022/09/04 12:49:27;;;;;;;4.28;1.70;;;26.60;90.40;;;;;;7396907;19;20011;-77
2022/09/04 12:52:35;;;;;;;2.22;1.80;;;26.60;90.80;;;;;;7396495;19;20006;-77
2022/09/04 12:55:24;;;;;;;4.25;1.60;;;26.50;90.80;;;;;;7395791;19;20018;-77
2022/09/04 12:58:16;;;;;;;3.33;1.48;;;26.30;90.00;;;;;;7396315;19;20014;-77
2022/09/04 13:01:14;;;;;;;3.55;1.90;;;26.20;90.00;;;;;;7396229;19;20010;-77
2022/09/04 13:04:03;;;;;;;1.70;1.55;;;26.20;90.80;;;;;;7394530;19;20509;-77
2022/09/04 13:06:39;;;;;;;4.25;1.98;;;26.30;91.10;;;;;;7395802;19;20014;-77
2022/09/04 13:09:14;;;;;;;2.95;1.70;;;26.30;90.80;;;;;;7396716;19;20391;-77
2022/09/04 13:12:02;;;;;;;5.47;1.83;;;26.20;90.50;;;;;;7394484;19;20007;-77
2022/09/04 13:14:49;;;;;;;5.05;1.92;;;26.30;91.00;;;;;;7395469;19;20021;-77
2022/09/04 13:17:49;;;;;;;4.57;2.22;;;26.30;91.00;;;;;;7393586;19;20022;-77
2022/09/04 13:20:43;;;;;;;2.47;1.73;;;26.40;90.70;;;;;;7394472;19;20007;-77
2022/09/04 13:23:27;;;;;;;2.90;1.63;;;26.20;90.20;;;;;;7395837;19;20017;-78
2022/09/04 13:26:23;;;;;;;5.25;1.92;;;26.30;90.50;;;;;;7395838;19;20014;-77
2022/09/04 13:29:13;;;;;;;3.42;2.08;;;26.40;90.90;;;;;;7393100;19;20022;-77
2022/09/04 13:32:21;;;;;;;2.75;1.60;;;26.50;90.60;;;;;;7395194;19;20022;-77
2022/09/04 13:35:02;;;;;;;3.17;1.60;;;26.60;90.80;;;;;;7392762;19;20590;-77
2022/09/04 13:37:54;;;;;;;4.35;1.80;;;26.80;91.00;;;;;;7394926;19;20425;-77
2022/09/04 13:40:53;;;;;;;3.88;1.52;;;26.70;90.00;;;;;;7393176;19;20018;-77
2022/09/04 13:43:50;;;;;;;2.40;1.50;;;26.90;90.30;;;;;;7393054;19;20104;-77
2022/09/04 13:46:28;;;;;;;4.95;1.65;;;27.00;90.40;;;;;;7392440;19;20011;-77
2022/09/04 13:49:02;;;;;;;5.65;1.80;;;27.00;90.00;;;;;;7394570;19;20027;-77
2022/09/04 13:51:44;;;;;;;2.97;1.63;;;27.00;89.90;;;;;;7395401;19;20014;-77
2022/09/04 13:54:18;;;;;;;2.08;1.60;;;27.10;90.40;;;;;;7394175;19;20010;-77
2022/09/04 13:57:19;;;;;;;5.22;2.10;;;27.10;90.30;;;;;;7392595;19;20050;-77
2022/09/04 13:59:48;;;;;;;2.53;1.67;;;27.00;90.20;;;;;;7393705;19;20092;-77
2022/09/04 14:02:23;;;;;;;3.25;1.40;;;27.00;90.30;;;;;;7392566;19;20018;-77
2022/09/04 14:05:03;;;;;;;2.28;1.52;;;27.00;90.00;;;;;;7394378;19;20010;-77
2022/09/04 14:07:46;;;;;;;5.32;1.58;;;26.90;90.00;;;;;;7391529;19;20006;-77
2022/09/04 14:10:31;;;;;;;4.63;1.40;;;26.90;89.70;;;;;;7394078;19;20014;-77
2022/09/04 14:13:03;;;;;;;4.75;1.63;;;26.70;89.60;;;;;;7392174;19;20011;-77
2022/09/04 14:16:08;;;;;;;3.67;1.42;;;26.70;89.80;;;;;;7393356;19;20010;-77
2022/09/04 14:18:55;;;;;;;3.10;1.30;;;26.60;89.80;;;;;;7392470;19;20039;-77
2022/09/04 14:21:48;;;;;;;4.35;1.70;;;26.60;89.90;;;;;;7393705;19;20017;-77
2022/09/04 14:24:31;;;;;;;4.43;1.50;;;26.60;90.10;;;;;;7393725;19;20057;-76
2022/09/04 14:27:54;;;;;;;3.70;1.60;;;26.60;90.50;;;;;;7394629;19;20082;-77